sensor_id;sensor_type;location;lat;lon;timestamp;temperature;humidity
3275;DHT22;1649;53.672;10.064;2023-11-19T00:01:55;4.90;99.90
3275;DHT22;1649;53.672;10.064;2023-11-19T00:04:22;4.90;99.90
3275;DHT22;1649;53.672;10.064;2023-11-19T00:06:48;4.90;99.90
3275;DHT22;1649;53.672;10.064;2023-11-19T00:09:13;4.90;99.90
3275;DHT22;1649;53.672;10.064;2023-11-19T00:11:40;4.80;99.90
3275;DHT22;1649;53.672;10.064;2023-11-19T00:14:06;4.90;99.90
3275;DHT22;1649;53.672;10.064;2023-11-19T00:16:34;4.90;99.90
3275;DHT22;1649;53.672;10.064;2023-11-19T00:19:00;4.90;99.90
3275;DHT22;1649;53.672;10.064;2023-11-19T00:21:25;4.90;99.90
3275;DHT22;1649;53.672;10.064;2023-11-19T00:23:53;4.80;99.90
3275;DHT22;1649;53.672;10.064;2023-11-19T00:26:19;4.90;99.90
3275;DHT22;1649;53.672;10.064;2023-11-19T00:28:45;4.90;99.90
3275;DHT22;1649;53.672;10.064;2023-11-19T00:31:10;4.90;99.90
3275;DHT22;1649;53.672;10.064;2023-11-19T00:33:36;4.90;99.90
3275;DHT22;1649;53.672;10.064;2023-11-19T00:36:03;4.90;99.90
3275;DHT22;1649;53.672;10.064;2023-11-19T00:38:28;4.90;99.90
3275;DHT22;1649;53.672;10.064;2023-11-19T00:40:54;4.90;99.90
3275;DHT22;1649;53.672;10.064;2023-11-19T00:43:19;4.90;99.90
3275;DHT22;1649;53.672;10.064;2023-11-19T00:45:47;4.90;99.90
3275;DHT22;1649;53.672;10.064;2023-11-19T00:48:15;4.90;99.90
3275;DHT22;1649;53.672;10.064;2023-11-19T00:50:42;4.90;99.90
3275;DHT22;1649;53.672;10.064;2023-11-19T00:53:09;5.00;99.90
3275;DHT22;1649;53.672;10.064;2023-11-19T00:55:35;5.00;99.90
3275;DHT22;1649;53.672;10.064;2023-11-19T00:58:00;5.00;99.90
3275;DHT22;1649;53.672;10.064;2023-11-19T01:00:26;5.00;99.90
3275;DHT22;1649;53.672;10.064;2023-11-19T01:02:53;5.00;99.90
3275;DHT22;1649;53.672;10.064;2023-11-19T01:05:19;5.00;99.90
3275;DHT22;1649;53.672;10.064;2023-11-19T01:07:47;5.00;99.90
3275;DHT22;1649;53.672;10.064;2023-11-19T01:10:13;5.00;99.90
3275;DHT22;1649;53.672;10.064;2023-11-19T01:12:38;5.00;99.90
3275;DHT22;1649;53.672;10.064;2023-11-19T01:15:05;5.00;99.90
3275;DHT22;1649;53.672;10.064;2023-11-19T01:17:31;5.00;99.90
3275;DHT22;1649;53.672;10.064;2023-11-19T01:19:57;5.00;99.90
3275;DHT22;1649;53.672;10.064;2023-11-19T01:22:22;5.10;99.90
3275;DHT22;1649;53.672;10.064;2023-11-19T01:24:48;5.10;99.90
3275;DHT22;1649;53.672;10.064;2023-11-19T01:27:14;5.10;99.90
3275;DHT22;1649;53.672;10.064;2023-11-19T01:29:39;5.10;99.90
3275;DHT22;1649;53.672;10.064;2023-11-19T01:32:05;5.10;99.90
3275;DHT22;1649;53.672;10.064;2023-11-19T01:34:30;5.10;99.90
3275;DHT22;1649;53.672;10.064;2023-11-19T01:36:56;5.10;99.90
3275;DHT22;1649;53.672;10.064;2023-11-19T01:39:21;5.10;99.90
3275;DHT22;1649;53.672;10.064;2023-11-19T01:41:47;5.10;99.90
3275;DHT22;1649;53.672;10.064;2023-11-19T01:44:13;5.10;99.90
3275;DHT22;1649;53.672;10.064;2023-11-19T01:46:40;5.10;99.90
3275;DHT22;1649;53.672;10.064;2023-11-19T01:49:07;5.10;99.90
3275;DHT22;1649;53.672;10.064;2023-11-19T01:51:34;5.10;99.90
3275;DHT22;1649;53.672;10.064;2023-11-19T01:54:00;5.10;99.90
3275;DHT22;1649;53.672;10.064;2023-11-19T01:56:27;5.10;99.90
3275;DHT22;1649;53.672;10.064;2023-11-19T01:58:54;5.10;99.90
3275;DHT22;1649;53.672;10.064;2023-11-19T02:01:21;5.20;99.90
3275;DHT22;1649;53.672;10.064;2023-11-19T02:03:47;5.20;99.90
3275;DHT22;1649;53.672;10.064;2023-11-19T02:06:12;5.20;99.90
3275;DHT22;1649;53.672;10.064;2023-11-19T02:08:39;5.10;99.90
3275;DHT22;1649;53.672;10.064;2023-11-19T02:11:05;5.10;99.90
3275;DHT22;1649;53.672;10.064;2023-11-19T02:13:32;5.20;99.90
3275;DHT22;1649;53.672;10.064;2023-11-19T02:15:57;5.20;99.90
3275;DHT22;1649;53.672;10.064;2023-11-19T02:18:25;5.20;99.90
3275;DHT22;1649;53.672;10.064;2023-11-19T02:20:56;5.20;99.90
3275;DHT22;1649;53.672;10.064;2023-11-19T02:23:22;5.20;99.90
3275;DHT22;1649;53.672;10.064;2023-11-19T02:26:12;5.20;99.90
3275;DHT22;1649;53.672;10.064;2023-11-19T02:28:39;5.20;99.90
3275;DHT22;1649;53.672;10.064;2023-11-19T02:31:05;5.20;99.90
3275;DHT22;1649;53.672;10.064;2023-11-19T02:33:37;5.20;99.90
3275;DHT22;1649;53.672;10.064;2023-11-19T02:36:04;5.20;99.90
3275;DHT22;1649;53.672;10.064;2023-11-19T02:38:30;5.20;99.90
3275;DHT22;1649;53.672;10.064;2023-11-19T02:40:56;5.20;99.90
3275;DHT22;1649;53.672;10.064;2023-11-19T02:43:22;5.20;99.90
3275;DHT22;1649;53.672;10.064;2023-11-19T02:45:48;5.20;99.90
3275;DHT22;1649;53.672;10.064;2023-11-19T02:48:14;5.20;99.90
3275;DHT22;1649;53.672;10.064;2023-11-19T02:50:43;5.30;99.90
3275;DHT22;1649;53.672;10.064;2023-11-19T02:53:09;5.20;99.90
3275;DHT22;1649;53.672;10.064;2023-11-19T02:55:34;5.20;99.90
3275;DHT22;1649;53.672;10.064;2023-11-19T02:58:04;5.30;99.90
3275;DHT22;1649;53.672;10.064;2023-11-19T03:00:39;5.30;99.90
3275;DHT22;1649;53.672;10.064;2023-11-19T03:03:13;5.30;99.90
3275;DHT22;1649;53.672;10.064;2023-11-19T03:05:49;5.30;99.90
3275;DHT22;1649;53.672;10.064;2023-11-19T03:08:17;5.30;99.90
3275;DHT22;1649;53.672;10.064;2023-11-19T03:10:43;5.30;99.90
3275;DHT22;1649;53.672;10.064;2023-11-19T03:13:12;5.30;99.90
3275;DHT22;1649;53.672;10.064;2023-11-19T03:15:43;5.40;99.90
3275;DHT22;1649;53.672;10.064;2023-11-19T03:18:08;5.30;99.90
3275;DHT22;1649;53.672;10.064;2023-11-19T03:20:34;5.40;99.90
3275;DHT22;1649;53.672;10.064;2023-11-19T03:22:59;5.40;99.90
3275;DHT22;1649;53.672;10.064;2023-11-19T03:25:27;5.40;99.90
3275;DHT22;1649;53.672;10.064;2023-11-19T03:27:58;5.50;99.90
3275;DHT22;1649;53.672;10.064;2023-11-19T03:30:23;5.50;99.90
3275;DHT22;1649;53.672;10.064;2023-11-19T03:32:50;5.40;99.90
3275;DHT22;1649;53.672;10.064;2023-11-19T03:35:15;5.50;99.90
3275;DHT22;1649;53.672;10.064;2023-11-19T03:37:41;5.50;99.90
3275;DHT22;1649;53.672;10.064;2023-11-19T03:40:06;5.60;99.90
3275;DHT22;1649;53.672;10.064;2023-11-19T03:42:32;5.60;99.90
3275;DHT22;1649;53.672;10.064;2023-11-19T03:44:58;5.60;99.90
3275;DHT22;1649;53.672;10.064;2023-11-19T03:47:24;5.70;99.90
3275;DHT22;1649;53.672;10.064;2023-11-19T03:49:50;5.70;99.90
3275;DHT22;1649;53.672;10.064;2023-11-19T03:52:17;5.70;99.90
3275;DHT22;1649;53.672;10.064;2023-11-19T03:54:43;5.70;99.90
3275;DHT22;1649;53.672;10.064;2023-11-19T03:57:09;5.70;99.90
3275;DHT22;1649;53.672;10.064;2023-11-19T03:59:36;5.70;99.90
3275;DHT22;1649;53.672;10.064;2023-11-19T04:02:01;5.70;99.90
3275;DHT22;1649;53.672;10.064;2023-11-19T04:04:28;5.70;99.90
3275;DHT22;1649;53.672;10.064;2023-11-19T04:06:55;5.80;99.90
3275;DHT22;1649;53.672;10.064;2023-11-19T04:09:20;5.80;99.90
3275;DHT22;1649;53.672;10.064;2023-11-19T04:11:46;5.80;99.90
3275;DHT22;1649;53.672;10.064;2023-11-19T04:14:12;5.80;99.90
3275;DHT22;1649;53.672;10.064;2023-11-19T04:16:38;5.80;99.90
3275;DHT22;1649;53.672;10.064;2023-11-19T04:19:04;5.90;99.90
3275;DHT22;1649;53.672;10.064;2023-11-19T04:21:30;5.90;99.90
3275;DHT22;1649;53.672;10.064;2023-11-19T04:23:56;5.90;99.90
3275;DHT22;1649;53.672;10.064;2023-11-19T04:26:21;5.90;99.90
3275;DHT22;1649;53.672;10.064;2023-11-19T04:28:47;6.00;99.90
3275;DHT22;1649;53.672;10.064;2023-11-19T04:31:14;6.00;99.90
3275;DHT22;1649;53.672;10.064;2023-11-19T04:33:41;6.00;99.90
3275;DHT22;1649;53.672;10.064;2023-11-19T04:36:07;6.10;99.90
3275;DHT22;1649;53.672;10.064;2023-11-19T04:38:32;6.10;99.90
3275;DHT22;1649;53.672;10.064;2023-11-19T04:40:58;6.10;99.90
3275;DHT22;1649;53.672;10.064;2023-11-19T04:43:23;6.20;99.90
3275;DHT22;1649;53.672;10.064;2023-11-19T04:45:49;6.20;99.90
3275;DHT22;1649;53.672;10.064;2023-11-19T04:48:14;6.10;99.90
3275;DHT22;1649;53.672;10.064;2023-11-19T04:50:40;6.20;99.90
3275;DHT22;1649;53.672;10.064;2023-11-19T04:53:05;6.20;99.90
3275;DHT22;1649;53.672;10.064;2023-11-19T04:55:31;6.20;99.90
3275;DHT22;1649;53.672;10.064;2023-11-19T04:57:56;6.20;99.90
3275;DHT22;1649;53.672;10.064;2023-11-19T05:00:22;6.20;99.90
3275;DHT22;1649;53.672;10.064;2023-11-19T05:02:47;6.20;99.90
3275;DHT22;1649;53.672;10.064;2023-11-19T05:05:13;6.30;99.90
3275;DHT22;1649;53.672;10.064;2023-11-19T05:07:40;6.30;99.90
3275;DHT22;1649;53.672;10.064;2023-11-19T05:10:06;6.30;99.90
3275;DHT22;1649;53.672;10.064;2023-11-19T05:12:32;6.40;99.90
3275;DHT22;1649;53.672;10.064;2023-11-19T05:14:57;6.40;99.90
3275;DHT22;1649;53.672;10.064;2023-11-19T05:17:23;6.40;99.90
3275;DHT22;1649;53.672;10.064;2023-11-19T05:19:49;6.40;99.90
3275;DHT22;1649;53.672;10.064;2023-11-19T05:22:14;6.40;99.90
3275;DHT22;1649;53.672;10.064;2023-11-19T05:24:40;6.50;99.90
3275;DHT22;1649;53.672;10.064;2023-11-19T05:27:06;6.50;99.90
3275;DHT22;1649;53.672;10.064;2023-11-19T05:29:33;6.60;99.90
3275;DHT22;1649;53.672;10.064;2023-11-19T05:31:59;6.60;99.90
3275;DHT22;1649;53.672;10.064;2023-11-19T05:34:24;6.60;99.90
3275;DHT22;1649;53.672;10.064;2023-11-19T05:36:50;6.70;99.90
3275;DHT22;1649;53.672;10.064;2023-11-19T05:39:16;6.70;99.90
3275;DHT22;1649;53.672;10.064;2023-11-19T05:41:43;6.80;99.90
3275;DHT22;1649;53.672;10.064;2023-11-19T05:44:09;6.90;99.90
3275;DHT22;1649;53.672;10.064;2023-11-19T05:46:34;6.90;99.90
3275;DHT22;1649;53.672;10.064;2023-11-19T05:49:05;7.00;99.90
3275;DHT22;1649;53.672;10.064;2023-11-19T05:51:31;7.10;99.90
3275;DHT22;1649;53.672;10.064;2023-11-19T05:53:56;7.10;99.90
3275;DHT22;1649;53.672;10.064;2023-11-19T05:56:22;7.10;99.90
3275;DHT22;1649;53.672;10.064;2023-11-19T05:58:48;7.30;99.90
3275;DHT22;1649;53.672;10.064;2023-11-19T06:01:14;7.30;99.90
3275;DHT22;1649;53.672;10.064;2023-11-19T06:03:40;7.40;99.90
3275;DHT22;1649;53.672;10.064;2023-11-19T06:06:06;7.50;99.90
3275;DHT22;1649;53.672;10.064;2023-11-19T06:08:32;7.50;99.90
3275;DHT22;1649;53.672;10.064;2023-11-19T06:10:57;7.60;99.90
3275;DHT22;1649;53.672;10.064;2023-11-19T06:13:23;7.70;99.90
3275;DHT22;1649;53.672;10.064;2023-11-19T06:15:49;7.70;99.90
3275;DHT22;1649;53.672;10.064;2023-11-19T06:18:16;7.80;99.90
3275;DHT22;1649;53.672;10.064;2023-11-19T06:20:41;7.90;99.90
3275;DHT22;1649;53.672;10.064;2023-11-19T06:23:07;7.90;99.90
3275;DHT22;1649;53.672;10.064;2023-11-19T06:25:32;7.90;99.90
3275;DHT22;1649;53.672;10.064;2023-11-19T06:27:58;7.90;99.90
3275;DHT22;1649;53.672;10.064;2023-11-19T06:30:24;7.90;99.90
3275;DHT22;1649;53.672;10.064;2023-11-19T06:32:49;8.00;99.90
3275;DHT22;1649;53.672;10.064;2023-11-19T06:35:15;8.00;99.90
3275;DHT22;1649;53.672;10.064;2023-11-19T06:37:41;8.10;99.90
3275;DHT22;1649;53.672;10.064;2023-11-19T06:40:07;8.10;99.90
3275;DHT22;1649;53.672;10.064;2023-11-19T06:42:34;8.30;99.90
3275;DHT22;1649;53.672;10.064;2023-11-19T06:45:00;8.30;99.90
3275;DHT22;1649;53.672;10.064;2023-11-19T06:47:28;8.40;99.90
3275;DHT22;1649;53.672;10.064;2023-11-19T06:49:55;8.50;99.90
3275;DHT22;1649;53.672;10.064;2023-11-19T06:52:20;8.70;99.90
3275;DHT22;1649;53.672;10.064;2023-11-19T06:54:46;8.70;99.90
3275;DHT22;1649;53.672;10.064;2023-11-19T06:57:12;8.80;99.90
3275;DHT22;1649;53.672;10.064;2023-11-19T06:59:38;8.90;99.90
3275;DHT22;1649;53.672;10.064;2023-11-19T07:02:03;9.10;99.90
3275;DHT22;1649;53.672;10.064;2023-11-19T07:04:30;9.20;99.90
3275;DHT22;1649;53.672;10.064;2023-11-19T07:06:56;9.30;99.90
3275;DHT22;1649;53.672;10.064;2023-11-19T07:09:21;9.40;99.90
3275;DHT22;1649;53.672;10.064;2023-11-19T07:11:48;9.50;99.90
3275;DHT22;1649;53.672;10.064;2023-11-19T07:14:15;9.70;99.90
3275;DHT22;1649;53.672;10.064;2023-11-19T07:16:41;9.90;99.90
3275;DHT22;1649;53.672;10.064;2023-11-19T07:19:08;9.90;99.90
3275;DHT22;1649;53.672;10.064;2023-11-19T07:21:33;9.90;99.90
3275;DHT22;1649;53.672;10.064;2023-11-19T07:23:59;10.10;99.90
3275;DHT22;1649;53.672;10.064;2023-11-19T07:26:25;10.20;99.90
3275;DHT22;1649;53.672;10.064;2023-11-19T07:28:50;10.20;99.90
3275;DHT22;1649;53.672;10.064;2023-11-19T07:31:16;10.30;99.90
3275;DHT22;1649;53.672;10.064;2023-11-19T07:33:43;10.30;99.90
3275;DHT22;1649;53.672;10.064;2023-11-19T07:36:09;10.40;99.90
3275;DHT22;1649;53.672;10.064;2023-11-19T07:38:35;10.40;99.90
3275;DHT22;1649;53.672;10.064;2023-11-19T07:41:01;10.40;99.90
3275;DHT22;1649;53.672;10.064;2023-11-19T07:43:26;10.50;99.90
3275;DHT22;1649;53.672;10.064;2023-11-19T07:45:52;10.50;99.90
3275;DHT22;1649;53.672;10.064;2023-11-19T07:48:18;10.50;99.90
3275;DHT22;1649;53.672;10.064;2023-11-19T07:50:48;10.50;99.90
3275;DHT22;1649;53.672;10.064;2023-11-19T07:53:16;10.50;99.90
3275;DHT22;1649;53.672;10.064;2023-11-19T07:55:41;10.50;99.90
3275;DHT22;1649;53.672;10.064;2023-11-19T07:58:07;10.50;99.90
3275;DHT22;1649;53.672;10.064;2023-11-19T08:00:32;10.50;99.90
3275;DHT22;1649;53.672;10.064;2023-11-19T08:02:58;10.50;99.90
3275;DHT22;1649;53.672;10.064;2023-11-19T08:05:23;10.60;99.90
3275;DHT22;1649;53.672;10.064;2023-11-19T08:07:50;10.60;99.90
3275;DHT22;1649;53.672;10.064;2023-11-19T08:10:18;10.60;99.90
3275;DHT22;1649;53.672;10.064;2023-11-19T08:12:44;10.70;99.90
3275;DHT22;1649;53.672;10.064;2023-11-19T08:15:10;10.60;99.90
3275;DHT22;1649;53.672;10.064;2023-11-19T08:17:36;10.70;99.90
3275;DHT22;1649;53.672;10.064;2023-11-19T08:20:01;10.70;99.90
3275;DHT22;1649;53.672;10.064;2023-11-19T08:22:27;10.70;99.90
3275;DHT22;1649;53.672;10.064;2023-11-19T08:24:52;10.70;99.90
3275;DHT22;1649;53.672;10.064;2023-11-19T08:27:18;10.70;99.90
3275;DHT22;1649;53.672;10.064;2023-11-19T08:29:44;10.70;99.90
3275;DHT22;1649;53.672;10.064;2023-11-19T08:32:09;10.80;99.90
3275;DHT22;1649;53.672;10.064;2023-11-19T08:34:36;10.80;99.90
3275;DHT22;1649;53.672;10.064;2023-11-19T08:37:01;10.80;99.90
3275;DHT22;1649;53.672;10.064;2023-11-19T08:39:27;10.90;99.90
3275;DHT22;1649;53.672;10.064;2023-11-19T08:41:52;10.90;99.90
3275;DHT22;1649;53.672;10.064;2023-11-19T08:44:18;10.80;99.90
3275;DHT22;1649;53.672;10.064;2023-11-19T08:46:48;10.90;99.90
3275;DHT22;1649;53.672;10.064;2023-11-19T08:49:14;10.90;99.90
3275;DHT22;1649;53.672;10.064;2023-11-19T08:51:40;10.80;99.90
3275;DHT22;1649;53.672;10.064;2023-11-19T08:54:06;10.80;99.90
3275;DHT22;1649;53.672;10.064;2023-11-19T08:56:32;10.90;99.90
3275;DHT22;1649;53.672;10.064;2023-11-19T08:59:00;10.90;99.90
3275;DHT22;1649;53.672;10.064;2023-11-19T09:01:25;10.90;99.90
3275;DHT22;1649;53.672;10.064;2023-11-19T09:03:51;11.00;99.90
3275;DHT22;1649;53.672;10.064;2023-11-19T09:06:17;11.00;99.90
3275;DHT22;1649;53.672;10.064;2023-11-19T09:08:43;11.10;99.90
3275;DHT22;1649;53.672;10.064;2023-11-19T09:11:09;11.10;99.90
3275;DHT22;1649;53.672;10.064;2023-11-19T09:13:35;11.10;99.90
3275;DHT22;1649;53.672;10.064;2023-11-19T09:16:01;11.10;99.90
3275;DHT22;1649;53.672;10.064;2023-11-19T09:18:32;11.10;99.90
3275;DHT22;1649;53.672;10.064;2023-11-19T09:20:58;11.20;99.90
3275;DHT22;1649;53.672;10.064;2023-11-19T09:23:23;11.30;99.90
3275;DHT22;1649;53.672;10.064;2023-11-19T09:25:50;11.30;99.90
3275;DHT22;1649;53.672;10.064;2023-11-19T09:28:16;11.40;99.90
3275;DHT22;1649;53.672;10.064;2023-11-19T09:30:41;11.50;99.90
3275;DHT22;1649;53.672;10.064;2023-11-19T09:33:07;11.50;99.90
3275;DHT22;1649;53.672;10.064;2023-11-19T09:35:32;11.40;99.90
3275;DHT22;1649;53.672;10.064;2023-11-19T09:37:58;11.30;99.90
3275;DHT22;1649;53.672;10.064;2023-11-19T09:40:24;11.30;99.90
3275;DHT22;1649;53.672;10.064;2023-11-19T09:42:50;11.30;99.90
3275;DHT22;1649;53.672;10.064;2023-11-19T09:45:16;11.30;99.90
3275;DHT22;1649;53.672;10.064;2023-11-19T09:47:44;11.30;99.90
3275;DHT22;1649;53.672;10.064;2023-11-19T09:50:20;11.20;99.90
3275;DHT22;1649;53.672;10.064;2023-11-19T09:52:46;11.20;99.90
3275;DHT22;1649;53.672;10.064;2023-11-19T09:55:12;11.20;99.90
3275;DHT22;1649;53.672;10.064;2023-11-19T09:57:41;11.20;99.90
3275;DHT22;1649;53.672;10.064;2023-11-19T10:00:10;11.20;99.90
3275;DHT22;1649;53.672;10.064;2023-11-19T10:02:37;11.30;99.90
3275;DHT22;1649;53.672;10.064;2023-11-19T10:05:09;11.40;99.90
3275;DHT22;1649;53.672;10.064;2023-11-19T10:07:35;11.60;99.90
3275;DHT22;1649;53.672;10.064;2023-11-19T10:10:04;11.60;99.90
3275;DHT22;1649;53.672;10.064;2023-11-19T10:12:30;11.60;99.90
3275;DHT22;1649;53.672;10.064;2023-11-19T10:14:57;11.60;99.90
3275;DHT22;1649;53.672;10.064;2023-11-19T10:17:32;11.60;99.90
3275;DHT22;1649;53.672;10.064;2023-11-19T10:19:58;11.50;99.90
3275;DHT22;1649;53.672;10.064;2023-11-19T10:22:24;11.50;99.90
3275;DHT22;1649;53.672;10.064;2023-11-19T10:24:51;11.50;99.90
3275;DHT22;1649;53.672;10.064;2023-11-19T10:27:17;11.60;99.90
3275;DHT22;1649;53.672;10.064;2023-11-19T10:29:46;11.70;99.90
3275;DHT22;1649;53.672;10.064;2023-11-19T10:32:13;11.80;99.90
3275;DHT22;1649;53.672;10.064;2023-11-19T10:34:39;11.80;99.90
3275;DHT22;1649;53.672;10.064;2023-11-19T10:37:05;11.90;99.90
3275;DHT22;1649;53.672;10.064;2023-11-19T10:39:52;11.90;99.90
3275;DHT22;1649;53.672;10.064;2023-11-19T10:42:19;12.00;99.90
3275;DHT22;1649;53.672;10.064;2023-11-19T10:44:45;12.10;99.90
3275;DHT22;1649;53.672;10.064;2023-11-19T10:47:12;12.10;99.90
3275;DHT22;1649;53.672;10.064;2023-11-19T10:49:38;12.00;99.90
3275;DHT22;1649;53.672;10.064;2023-11-19T10:52:05;12.00;99.90
3275;DHT22;1649;53.672;10.064;2023-11-19T10:54:34;11.90;99.90
3275;DHT22;1649;53.672;10.064;2023-11-19T10:57:00;11.90;99.90
3275;DHT22;1649;53.672;10.064;2023-11-19T10:59:29;12.00;99.90
3275;DHT22;1649;53.672;10.064;2023-11-19T11:01:56;12.00;99.90
3275;DHT22;1649;53.672;10.064;2023-11-19T11:04:25;12.00;99.90
3275;DHT22;1649;53.672;10.064;2023-11-19T11:06:54;11.90;99.90
3275;DHT22;1649;53.672;10.064;2023-11-19T11:09:28;11.80;99.90
3275;DHT22;1649;53.672;10.064;2023-11-19T11:11:54;11.90;99.90
3275;DHT22;1649;53.672;10.064;2023-11-19T11:14:21;12.00;99.90
3275;DHT22;1649;53.672;10.064;2023-11-19T11:16:48;11.80;99.90
3275;DHT22;1649;53.672;10.064;2023-11-19T11:19:16;11.80;99.90
3275;DHT22;1649;53.672;10.064;2023-11-19T11:21:45;11.70;99.90
3275;DHT22;1649;53.672;10.064;2023-11-19T11:24:38;11.60;99.90
3275;DHT22;1649;53.672;10.064;2023-11-19T11:27:34;11.60;99.90
3275;DHT22;1649;53.672;10.064;2023-11-19T11:30:14;11.50;99.90
3275;DHT22;1649;53.672;10.064;2023-11-19T11:33:06;11.50;99.90
3275;DHT22;1649;53.672;10.064;2023-11-19T11:38:06;11.60;99.90
3275;DHT22;1649;53.672;10.064;2023-11-19T11:40:32;11.60;99.90
3275;DHT22;1649;53.672;10.064;2023-11-19T11:42:58;11.80;99.90
3275;DHT22;1649;53.672;10.064;2023-11-19T11:45:36;11.90;99.90
3275;DHT22;1649;53.672;10.064;2023-11-19T11:48:12;12.00;99.90
3275;DHT22;1649;53.672;10.064;2023-11-19T11:50:53;12.00;99.90
3275;DHT22;1649;53.672;10.064;2023-11-19T11:53:21;11.90;99.90
3275;DHT22;1649;53.672;10.064;2023-11-19T11:58:17;11.80;99.90
3275;DHT22;1649;53.672;10.064;2023-11-19T12:00:42;11.60;99.90
3275;DHT22;1649;53.672;10.064;2023-11-19T12:03:09;11.50;99.90
3275;DHT22;1649;53.672;10.064;2023-11-19T12:05:44;11.30;99.90
3275;DHT22;1649;53.672;10.064;2023-11-19T12:08:11;11.20;99.90
3275;DHT22;1649;53.672;10.064;2023-11-19T12:13:16;11.10;99.90
3275;DHT22;1649;53.672;10.064;2023-11-19T12:18:30;11.20;99.90
3275;DHT22;1649;53.672;10.064;2023-11-19T12:20:56;11.20;99.90
3275;DHT22;1649;53.672;10.064;2023-11-19T12:23:23;11.10;99.90
3275;DHT22;1649;53.672;10.064;2023-11-19T12:25:49;11.30;99.90
3275;DHT22;1649;53.672;10.064;2023-11-19T12:28:15;11.50;99.90
3275;DHT22;1649;53.672;10.064;2023-11-19T12:30:45;11.60;99.90
3275;DHT22;1649;53.672;10.064;2023-11-19T12:33:12;11.80;99.90
3275;DHT22;1649;53.672;10.064;2023-11-19T12:35:39;11.80;99.90
3275;DHT22;1649;53.672;10.064;2023-11-19T12:38:05;11.70;99.90
3275;DHT22;1649;53.672;10.064;2023-11-19T12:40:31;11.70;99.90
3275;DHT22;1649;53.672;10.064;2023-11-19T12:42:56;11.70;99.90
3275;DHT22;1649;53.672;10.064;2023-11-19T12:45:23;11.70;99.90
3275;DHT22;1649;53.672;10.064;2023-11-19T12:48:04;11.70;99.90
3275;DHT22;1649;53.672;10.064;2023-11-19T12:50:50;11.60;99.90
3275;DHT22;1649;53.672;10.064;2023-11-19T12:53:16;11.50;99.90
3275;DHT22;1649;53.672;10.064;2023-11-19T12:55:41;11.50;99.90
3275;DHT22;1649;53.672;10.064;2023-11-19T12:58:07;11.40;99.90
3275;DHT22;1649;53.672;10.064;2023-11-19T13:00:32;11.30;99.90
3275;DHT22;1649;53.672;10.064;2023-11-19T13:02:58;11.20;99.90
3275;DHT22;1649;53.672;10.064;2023-11-19T13:05:33;11.20;99.90
3275;DHT22;1649;53.672;10.064;2023-11-19T13:10:30;11.30;99.90
3275;DHT22;1649;53.672;10.064;2023-11-19T13:13:06;11.20;99.90
3275;DHT22;1649;53.672;10.064;2023-11-19T13:15:36;11.20;99.90
3275;DHT22;1649;53.672;10.064;2023-11-19T13:18:02;11.20;99.90
3275;DHT22;1649;53.672;10.064;2023-11-19T13:20:28;11.20;99.90
3275;DHT22;1649;53.672;10.064;2023-11-19T13:23:01;11.30;99.90
3275;DHT22;1649;53.672;10.064;2023-11-19T13:25:27;11.20;99.90
3275;DHT22;1649;53.672;10.064;2023-11-19T13:27:54;11.20;99.90
3275;DHT22;1649;53.672;10.064;2023-11-19T13:30:20;11.20;99.90
3275;DHT22;1649;53.672;10.064;2023-11-19T13:32:45;11.20;99.90
3275;DHT22;1649;53.672;10.064;2023-11-19T13:35:12;11.30;99.90
3275;DHT22;1649;53.672;10.064;2023-11-19T13:37:38;11.20;99.90
3275;DHT22;1649;53.672;10.064;2023-11-19T13:40:04;11.30;99.90
3275;DHT22;1649;53.672;10.064;2023-11-19T13:42:29;11.30;99.90
3275;DHT22;1649;53.672;10.064;2023-11-19T13:44:55;11.20;99.90
3275;DHT22;1649;53.672;10.064;2023-11-19T13:47:21;11.20;99.90
3275;DHT22;1649;53.672;10.064;2023-11-19T13:49:47;11.20;99.90
3275;DHT22;1649;53.672;10.064;2023-11-19T13:52:12;11.20;99.90
3275;DHT22;1649;53.672;10.064;2023-11-19T13:54:38;11.20;99.90
3275;DHT22;1649;53.672;10.064;2023-11-19T13:57:04;11.20;99.90
3275;DHT22;1649;53.672;10.064;2023-11-19T13:59:30;11.20;99.90
3275;DHT22;1649;53.672;10.064;2023-11-19T14:01:57;11.20;99.90
3275;DHT22;1649;53.672;10.064;2023-11-19T14:04:23;11.10;99.90
3275;DHT22;1649;53.672;10.064;2023-11-19T14:06:48;11.20;99.90
3275;DHT22;1649;53.672;10.064;2023-11-19T14:09:14;11.20;99.90
3275;DHT22;1649;53.672;10.064;2023-11-19T14:11:39;11.20;99.90
3275;DHT22;1649;53.672;10.064;2023-11-19T14:14:06;11.20;99.90
3275;DHT22;1649;53.672;10.064;2023-11-19T14:16:31;11.20;99.90
3275;DHT22;1649;53.672;10.064;2023-11-19T14:18:57;11.20;99.90
3275;DHT22;1649;53.672;10.064;2023-11-19T14:21:23;11.20;99.90
3275;DHT22;1649;53.672;10.064;2023-11-19T14:23:48;11.10;99.90
3275;DHT22;1649;53.672;10.064;2023-11-19T14:26:14;11.00;99.90
3275;DHT22;1649;53.672;10.064;2023-11-19T14:28:39;10.90;99.90
3275;DHT22;1649;53.672;10.064;2023-11-19T14:31:05;10.80;99.90
3275;DHT22;1649;53.672;10.064;2023-11-19T14:33:30;10.70;99.90
3275;DHT22;1649;53.672;10.064;2023-11-19T14:35:56;10.70;99.90
3275;DHT22;1649;53.672;10.064;2023-11-19T14:38:22;10.60;99.90
3275;DHT22;1649;53.672;10.064;2023-11-19T14:40:47;10.60;99.90
3275;DHT22;1649;53.672;10.064;2023-11-19T14:43:13;10.50;99.90
3275;DHT22;1649;53.672;10.064;2023-11-19T14:45:40;10.50;99.90
3275;DHT22;1649;53.672;10.064;2023-11-19T14:48:06;10.40;99.90
3275;DHT22;1649;53.672;10.064;2023-11-19T14:50:31;10.30;99.90
3275;DHT22;1649;53.672;10.064;2023-11-19T14:52:57;10.20;99.90
3275;DHT22;1649;53.672;10.064;2023-11-19T14:55:23;10.10;99.90
3275;DHT22;1649;53.672;10.064;2023-11-19T14:57:49;10.00;99.90
3275;DHT22;1649;53.672;10.064;2023-11-19T15:00:16;10.00;99.90
3275;DHT22;1649;53.672;10.064;2023-11-19T15:02:41;9.90;99.90
3275;DHT22;1649;53.672;10.064;2023-11-19T15:05:08;9.90;99.90
3275;DHT22;1649;53.672;10.064;2023-11-19T15:07:38;9.80;99.90
3275;DHT22;1649;53.672;10.064;2023-11-19T15:10:06;9.70;99.90
3275;DHT22;1649;53.672;10.064;2023-11-19T15:12:38;9.60;99.90
3275;DHT22;1649;53.672;10.064;2023-11-19T15:15:09;9.60;99.90
3275;DHT22;1649;53.672;10.064;2023-11-19T15:17:35;9.50;99.90
3275;DHT22;1649;53.672;10.064;2023-11-19T15:20:02;9.50;99.90
3275;DHT22;1649;53.672;10.064;2023-11-19T15:22:28;9.40;99.90
3275;DHT22;1649;53.672;10.064;2023-11-19T15:24:53;9.30;99.90
3275;DHT22;1649;53.672;10.064;2023-11-19T15:27:19;9.30;99.90
3275;DHT22;1649;53.672;10.064;2023-11-19T15:29:44;9.30;99.90
3275;DHT22;1649;53.672;10.064;2023-11-19T15:32:10;9.20;99.90
3275;DHT22;1649;53.672;10.064;2023-11-19T15:34:36;9.20;99.90
3275;DHT22;1649;53.672;10.064;2023-11-19T15:37:03;9.20;99.90
3275;DHT22;1649;53.672;10.064;2023-11-19T15:39:29;9.20;99.90
3275;DHT22;1649;53.672;10.064;2023-11-19T15:41:55;9.20;99.90
3275;DHT22;1649;53.672;10.064;2023-11-19T15:44:21;9.20;99.90
3275;DHT22;1649;53.672;10.064;2023-11-19T15:46:46;9.20;99.90
3275;DHT22;1649;53.672;10.064;2023-11-19T15:49:11;9.20;99.90
3275;DHT22;1649;53.672;10.064;2023-11-19T15:51:37;9.20;99.90
3275;DHT22;1649;53.672;10.064;2023-11-19T15:54:03;9.20;99.90
3275;DHT22;1649;53.672;10.064;2023-11-19T15:56:30;9.30;99.90
3275;DHT22;1649;53.672;10.064;2023-11-19T15:58:56;9.30;99.90
3275;DHT22;1649;53.672;10.064;2023-11-19T16:01:22;9.20;99.90
3275;DHT22;1649;53.672;10.064;2023-11-19T16:03:47;9.30;99.90
3275;DHT22;1649;53.672;10.064;2023-11-19T16:06:13;9.30;99.90